createdAt,value
2022-12-22T08:11:36.750Z,21.85
2022-12-22T08:13:36.550Z,21.88
2022-12-22T08:14:36.503Z,21.89
2022-12-22T08:15:36.814Z,21.90
2022-12-22T08:16:36.581Z,21.90
2022-12-22T08:17:36.472Z,21.90
2022-12-22T08:18:36.463Z,21.91
2022-12-22T08:19:36.453Z,21.91
2022-12-22T08:20:36.913Z,21.92
2022-12-22T08:21:36.441Z,21.92
2022-12-22T08:22:36.449Z,21.92
2022-12-22T08:23:36.421Z,21.92
2022-12-22T08:24:36.821Z,21.93
2022-12-22T08:25:36.402Z,21.93
2022-12-22T08:26:37.333Z,21.94
2022-12-22T08:27:36.764Z,21.93
2022-12-22T08:28:36.372Z,21.93
2022-12-22T08:29:36.358Z,21.93
2022-12-22T08:30:36.355Z,21.94
2022-12-22T08:31:36.864Z,21.93
2022-12-22T08:32:36.839Z,21.93
2022-12-22T08:33:36.325Z,21.93
2022-12-22T08:34:36.331Z,21.94
2022-12-22T08:35:36.304Z,21.93
2022-12-22T08:36:36.324Z,21.92
2022-12-22T08:37:36.323Z,21.93
2022-12-22T08:38:36.308Z,21.93
2022-12-22T08:39:36.328Z,21.92
2022-12-22T08:40:36.257Z,21.93
2022-12-22T08:41:36.335Z,21.94
2022-12-22T08:42:36.251Z,21.94
2022-12-22T08:43:36.235Z,21.94
2022-12-22T08:44:36.223Z,21.94
2022-12-22T08:45:36.217Z,21.94
2022-12-22T08:46:36.411Z,21.94
2022-12-22T08:47:36.480Z,21.95
2022-12-22T08:48:36.188Z,21.95
2022-12-22T08:49:36.182Z,21.95
2022-12-22T08:50:36.164Z,21.95
2022-12-22T08:51:36.155Z,21.95
2022-12-22T08:52:36.343Z,21.96
2022-12-22T08:54:05.781Z,21.96
2022-12-22T08:54:36.178Z,21.95
2022-12-22T08:55:36.133Z,21.96
2022-12-22T08:56:36.119Z,21.96
2022-12-22T08:57:36.330Z,21.96
2022-12-22T08:58:36.098Z,21.97
2022-12-22T08:59:36.080Z,21.97
2022-12-22T09:00:36.126Z,21.96
2022-12-22T09:01:36.224Z,21.96
2022-12-22T09:02:36.295Z,21.96
2022-12-22T09:03:36.047Z,21.96
2022-12-22T09:04:36.037Z,21.96
2022-12-22T09:05:36.024Z,21.96
2022-12-22T09:06:41.004Z,21.95
2022-12-22T09:07:36.332Z,21.95
2022-12-22T09:08:36.001Z,21.95
2022-12-22T09:09:35.994Z,21.96
2022-12-22T09:10:36.008Z,21.96
2022-12-22T09:11:35.988Z,21.97
2022-12-22T09:12:36.341Z,21.96
2022-12-22T09:13:35.962Z,21.96
2022-12-22T09:14:36.337Z,21.97
2022-12-22T09:15:35.936Z,21.97
2022-12-22T09:16:36.392Z,21.97
2022-12-22T09:17:35.916Z,21.97
2022-12-22T09:18:35.907Z,21.96
2022-12-22T09:19:35.922Z,21.96
2022-12-22T09:20:35.887Z,21.96
2022-12-22T09:21:36.347Z,21.96
2022-12-22T09:22:35.888Z,21.97
2022-12-22T09:23:35.858Z,21.98
2022-12-22T09:24:35.850Z,21.96
2022-12-22T09:25:35.848Z,21.97
2022-12-22T09:26:35.859Z,21.98
2022-12-22T09:27:35.824Z,21.98
2022-12-22T09:28:35.811Z,21.99
2022-12-22T09:29:37.338Z,21.99
2022-12-22T09:30:35.843Z,21.99
2022-12-22T09:31:35.845Z,21.99
2022-12-22T09:32:35.781Z,21.98
2022-12-22T09:33:35.765Z,21.98
2022-12-22T09:34:35.847Z,21.98
2022-12-22T09:35:36.840Z,21.99
2022-12-22T09:36:35.736Z,21.99
2022-12-22T09:37:35.729Z,21.99
2022-12-22T09:38:35.721Z,21.99
2022-12-22T09:39:35.722Z,21.98
2022-12-22T09:40:35.847Z,21.99
2022-12-22T09:41:35.719Z,21.99
2022-12-22T09:42:35.721Z,21.99
2022-12-22T09:43:35.672Z,21.99
2022-12-22T09:44:35.664Z,21.99
2022-12-22T09:45:35.874Z,21.99
2022-12-22T09:46:35.711Z,21.98
2022-12-22T09:47:35.644Z,21.98
2022-12-22T09:48:35.629Z,21.98
2022-12-22T09:49:35.614Z,21.98
2022-12-22T09:50:35.849Z,21.98
2022-12-22T09:51:35.596Z,21.98
2022-12-22T09:52:35.634Z,21.97
2022-12-22T09:53:35.579Z,21.97
2022-12-22T09:54:35.585Z,21.97
2022-12-22T09:55:35.567Z,21.97
2022-12-22T09:56:35.563Z,21.97
2022-12-22T09:57:35.559Z,21.97
2022-12-22T09:58:35.579Z,21.98
2022-12-22T09:59:35.575Z,21.98
2022-12-22T10:01:35.688Z,21.97
2022-12-22T10:02:35.593Z,21.97
2022-12-22T10:03:35.552Z,21.97
2022-12-22T10:04:35.478Z,21.97
2022-12-22T10:05:35.851Z,21.97
2022-12-22T10:06:35.463Z,21.97
2022-12-22T10:07:35.467Z,21.98
2022-12-22T10:08:35.465Z,21.97
2022-12-22T10:09:49.533Z,21.97
2022-12-22T10:10:35.852Z,21.98
2022-12-22T10:11:35.411Z,21.98
2022-12-22T10:12:35.853Z,22.00
2022-12-22T10:13:35.414Z,22.02
2022-12-22T10:14:35.425Z,22.03
2022-12-22T10:15:35.396Z,22.04
2022-12-22T10:16:35.408Z,22.04
2022-12-22T10:17:35.865Z,22.04
2022-12-22T10:18:35.366Z,22.06
2022-12-22T10:19:35.334Z,22.07
2022-12-22T10:20:36.856Z,22.07
2022-12-22T10:21:37.869Z,22.08
2022-12-22T10:22:35.328Z,22.08
2022-12-22T10:23:35.304Z,22.08
2022-12-22T10:24:35.302Z,22.09
2022-12-22T10:26:00.635Z,22.11
2022-12-22T10:26:35.275Z,22.13
2022-12-22T10:27:37.238Z,22.15
2022-12-22T10:28:35.266Z,22.18
2022-12-22T10:29:35.248Z,22.18
2022-12-22T10:30:36.281Z,22.18
2022-12-22T10:32:35.217Z,22.22
2022-12-22T10:33:35.463Z,22.23
2022-12-22T10:34:35.626Z,22.23
2022-12-22T10:35:36.405Z,22.23
2022-12-22T10:36:35.861Z,22.25
2022-12-22T10:37:35.382Z,22.25
2022-12-22T10:38:35.376Z,22.28
2022-12-22T10:39:35.366Z,22.29
2022-12-22T10:40:35.362Z,22.30
2022-12-22T10:41:35.866Z,22.31
2022-12-22T10:42:35.337Z,22.31
2022-12-22T10:43:35.373Z,22.29
2022-12-22T10:44:35.323Z,22.28
2022-12-22T10:45:35.349Z,22.28
2022-12-22T10:46:35.542Z,22.26
2022-12-22T10:47:35.290Z,22.25
2022-12-22T10:48:35.278Z,22.26
2022-12-22T12:29:34.340Z,22.07
2022-12-22T12:30:38.854Z,22.07
2022-12-22T12:31:34.466Z,22.05
2022-12-22T12:33:34.310Z,22.05
2022-12-22T12:34:34.378Z,22.05
2022-12-22T12:35:34.288Z,22.04
2022-12-22T12:36:34.291Z,22.04
2022-12-22T12:37:34.432Z,22.04
2022-12-22T12:39:34.252Z,22.02
2022-12-22T12:40:34.238Z,22.02
2022-12-22T12:41:34.229Z,22.01
2022-12-22T12:42:34.403Z,22.01
2022-12-22T12:43:34.211Z,22.01
2022-12-22T12:44:34.205Z,22.01
2022-12-22T12:45:34.192Z,22.01
2022-12-22T12:46:34.285Z,22.01
2022-12-22T12:47:34.178Z,22.01
2022-12-22T12:48:34.167Z,22.02
2022-12-22T12:49:34.314Z,22.03
2022-12-22T12:50:34.154Z,22.03
2022-12-22T12:51:34.139Z,22.03
2022-12-22T12:52:34.132Z,22.03
2022-12-22T12:53:34.152Z,22.03
2022-12-22T12:54:33.136Z,22.03
2022-12-22T12:55:34.102Z,22.03
2022-12-22T12:56:34.094Z,22.04
2022-12-22T12:57:34.091Z,22.04
2022-12-22T12:58:34.074Z,22.04
2022-12-22T12:59:34.067Z,22.04
2022-12-22T13:00:34.168Z,22.04
2022-12-22T13:01:34.301Z,22.04
2022-12-22T13:02:34.229Z,22.05
2022-12-22T13:04:34.113Z,22.04
2022-12-22T13:05:34.008Z,22.04
2022-12-22T13:06:34.008Z,22.04
2022-12-22T13:07:34.411Z,22.04
2022-12-22T13:08:33.990Z,22.03
2022-12-22T13:09:51.259Z,22.03
2022-12-22T13:10:34.031Z,22.03
2022-12-22T13:12:11.155Z,22.03
2022-12-22T13:12:33.953Z,22.03
2022-12-22T13:13:34.007Z,22.04
2022-12-22T13:14:34.034Z,22.03
2022-12-22T13:15:33.916Z,22.03
2022-12-22T13:16:34.018Z,22.04
2022-12-22T13:17:34.027Z,22.03
2022-12-22T13:18:33.891Z,22.03
2022-12-22T13:19:33.884Z,22.04
2022-12-22T13:20:33.900Z,22.04
2022-12-22T13:21:52.423Z,22.04
2022-12-22T13:22:33.861Z,22.03
2022-12-22T13:23:45.943Z,22.03
2022-12-22T13:24:33.841Z,22.02
2022-12-22T13:25:33.826Z,22.02
2022-12-22T13:26:33.846Z,22.02
2022-12-22T13:27:33.806Z,22.02
2022-12-22T13:28:33.800Z,22.03
2022-12-22T13:29:33.789Z,22.03
2022-12-22T13:30:33.786Z,22.02
2022-12-22T13:31:33.869Z,22.03
2022-12-22T13:32:33.765Z,22.03
2022-12-22T13:33:33.752Z,22.03
2022-12-22T13:34:33.743Z,22.03
2022-12-22T13:35:37.376Z,22.03
2022-12-22T13:36:33.725Z,22.02
2022-12-22T13:37:33.715Z,22.02
2022-12-22T13:38:33.716Z,22.02
2022-12-22T13:39:34.702Z,22.02
2022-12-22T13:40:33.689Z,22.02
2022-12-22T13:41:33.803Z,22.02
2022-12-22T13:42:33.798Z,22.03
2022-12-22T13:43:33.664Z,22.02
2022-12-22T13:44:33.655Z,22.02
2022-12-22T13:45:33.639Z,22.03
2022-12-22T13:46:33.710Z,22.01
2022-12-22T13:47:33.622Z,22.02
2022-12-22T13:48:39.900Z,22.03
2022-12-22T13:50:07.121Z,22.02
2022-12-22T13:50:33.602Z,22.02
2022-12-22T13:51:33.586Z,22.02
2022-12-22T13:52:33.578Z,22.02
2022-12-22T13:54:33.560Z,22.02
2022-12-22T13:55:33.560Z,22.02
2022-12-22T13:56:33.539Z,22.03
2022-12-22T13:57:33.532Z,22.03
2022-12-22T13:58:33.562Z,22.03
2022-12-22T13:59:33.526Z,22.03
2022-12-22T14:00:33.613Z,22.03
2022-12-22T14:01:33.716Z,22.03
2022-12-22T14:02:33.749Z,22.03
2022-12-22T14:03:58.881Z,22.03
2022-12-22T14:04:33.503Z,22.03
2022-12-22T14:05:33.462Z,22.03
2022-12-22T14:06:33.450Z,22.03
2022-12-22T14:07:33.438Z,22.03
2022-12-22T14:08:33.439Z,22.03
2022-12-22T14:09:33.425Z,22.04
2022-12-22T14:10:33.410Z,22.04
2022-12-22T14:11:33.401Z,22.03
2022-12-22T14:12:33.465Z,22.03
2022-12-22T14:13:33.383Z,22.03
2022-12-22T14:14:33.399Z,22.03
2022-12-22T14:15:33.365Z,22.04
2022-12-22T14:16:33.379Z,22.04
2022-12-22T14:17:33.360Z,22.04
2022-12-22T14:18:33.349Z,22.05
2022-12-22T14:19:33.327Z,22.03
2022-12-22T14:20:33.323Z,22.04
2022-12-22T14:21:33.313Z,22.04
2022-12-22T14:22:33.304Z,22.03
2022-12-22T14:23:33.293Z,22.03
2022-12-22T14:24:37.834Z,22.03
2022-12-22T14:25:33.281Z,22.03
2022-12-22T14:26:33.271Z,22.03
2022-12-22T14:27:33.280Z,22.02
2022-12-22T14:28:33.247Z,22.03
2022-12-22T14:29:33.239Z,22.03
2022-12-22T14:30:38.003Z,22.03
2022-12-22T14:31:33.273Z,22.02
2022-12-22T14:32:33.217Z,22.02
2022-12-22T14:33:33.210Z,22.03
2022-12-22T14:34:33.192Z,22.02
2022-12-22T14:35:33.185Z,22.02
2022-12-22T14:36:33.172Z,22.03
2022-12-22T14:37:33.478Z,22.03
2022-12-22T14:38:33.169Z,22.03
2022-12-22T14:39:33.182Z,22.04
2022-12-22T14:40:33.142Z,22.05
2022-12-22T14:41:33.129Z,22.04
2022-12-22T14:42:33.123Z,22.05
2022-12-22T14:43:33.134Z,22.04
2022-12-22T14:44:33.106Z,22.05
2022-12-22T14:45:33.158Z,22.05
2022-12-22T14:46:38.676Z,22.05
2022-12-22T14:47:33.082Z,22.05
2022-12-22T14:48:33.067Z,22.04
2022-12-22T14:49:33.057Z,22.04
2022-12-22T14:50:33.048Z,22.04
2022-12-22T14:51:33.051Z,22.04
2022-12-22T14:52:33.050Z,22.04
2022-12-22T14:53:33.026Z,22.04
2022-12-22T14:54:33.012Z,22.04
2022-12-22T14:55:33.007Z,22.04
2022-12-22T14:56:32.992Z,22.04
2022-12-22T14:57:32.988Z,22.03
2022-12-22T14:58:32.975Z,22.04
2022-12-22T14:59:32.971Z,22.03
2022-12-22T15:00:32.961Z,22.02
2022-12-22T15:01:33.104Z,22.04
2022-12-22T15:02:38.713Z,22.03
2022-12-22T15:03:33.102Z,22.01
2022-12-22T15:04:32.917Z,22.01
2022-12-22T15:05:32.917Z,22.00
2022-12-22T15:06:32.900Z,22.01
2022-12-22T15:08:04.921Z,22.01
2022-12-22T15:08:38.165Z,21.99
2022-12-22T15:10:13.067Z,21.99
2022-12-22T15:10:32.867Z,21.99
2022-12-22T15:11:32.860Z,21.98
2022-12-22T15:12:32.843Z,21.99
2022-12-22T15:13:32.838Z,21.99
2022-12-22T15:14:38.497Z,22.00
2022-12-22T15:15:32.820Z,21.99
2022-12-22T15:16:32.879Z,21.99
2022-12-22T15:17:32.813Z,21.99
2022-12-22T15:18:32.935Z,21.99
2022-12-22T15:19:32.787Z,22.00
2022-12-22T15:20:38.923Z,22.00
2022-12-22T15:21:32.769Z,21.98
2022-12-22T15:22:32.765Z,21.99
2022-12-22T15:23:32.752Z,21.99
2022-12-22T15:24:32.748Z,21.99
2022-12-22T15:25:32.735Z,22.00
2022-12-22T15:26:37.653Z,21.99
2022-12-22T15:27:32.707Z,21.99
2022-12-22T15:28:32.698Z,21.99
2022-12-22T15:29:32.688Z,21.98
2022-12-22T15:30:32.714Z,21.99
2022-12-22T15:31:32.828Z,21.99
2022-12-22T15:32:37.734Z,21.99
2022-12-22T15:33:32.653Z,21.97
2022-12-22T15:34:32.686Z,21.98
2022-12-22T15:35:32.638Z,21.98
2022-12-22T15:36:32.622Z,21.98
2022-12-22T15:37:32.968Z,21.98
2022-12-22T15:38:38.533Z,21.98
2022-12-22T15:39:32.600Z,21.96
2022-12-22T15:40:32.592Z,21.96
2022-12-22T15:41:32.577Z,21.97
2022-12-22T15:42:32.576Z,21.97
2022-12-22T15:43:59.105Z,21.97
2022-12-22T15:44:38.448Z,21.97
2022-12-22T15:45:32.548Z,21.96
2022-12-22T15:46:32.622Z,21.95
2022-12-22T15:47:32.534Z,21.96
2022-12-22T15:48:32.527Z,21.97
2022-12-22T15:49:32.524Z,21.96
2022-12-22T15:50:38.811Z,21.96
2022-12-22T15:51:32.485Z,21.95
2022-12-22T15:52:32.477Z,21.94
2022-12-22T15:53:32.470Z,21.95
2022-12-22T15:54:32.476Z,21.94
2022-12-22T15:55:32.451Z,21.94
2022-12-22T15:56:32.440Z,21.95
2022-12-22T15:57:32.430Z,21.94
2022-12-22T15:58:32.427Z,21.94
2022-12-22T15:59:32.467Z,21.94
2022-12-22T16:00:32.402Z,21.94
2022-12-22T16:01:32.564Z,21.93
2022-12-22T16:02:32.501Z,21.92
2022-12-22T16:03:32.591Z,21.91
2022-12-22T16:04:32.415Z,21.88
2022-12-22T16:05:32.360Z,21.88
2022-12-22T16:06:32.377Z,21.87
2022-12-22T16:07:32.337Z,21.86
2022-12-22T16:08:32.326Z,21.86
2022-12-22T16:09:32.319Z,21.86
2022-12-22T16:10:32.312Z,21.86
2022-12-22T16:11:32.304Z,21.85
2022-12-22T16:12:32.294Z,21.84
2022-12-22T16:13:32.284Z,21.84
2022-12-22T16:14:38.545Z,21.85
2022-12-22T16:15:32.324Z,21.83
2022-12-22T16:16:32.316Z,21.84
2022-12-22T16:17:32.245Z,21.84
2022-12-22T16:18:32.241Z,21.85
2022-12-22T16:19:32.226Z,21.86
2022-12-22T16:20:37.441Z,21.86
2022-12-22T16:21:32.206Z,21.86
2022-12-22T16:22:32.235Z,21.85
2022-12-22T16:23:32.190Z,21.84
2022-12-22T16:24:32.180Z,21.84
2022-12-22T16:25:32.199Z,21.83
2022-12-22T16:26:32.167Z,21.83
2022-12-22T16:27:32.152Z,21.84
2022-12-22T16:28:32.142Z,21.84
2022-12-22T18:03:31.348Z,21.64
2022-12-22T18:04:31.445Z,21.64
2022-12-22T18:05:31.243Z,21.64
2022-12-22T18:06:31.234Z,21.65
2022-12-22T18:07:31.225Z,21.66
2022-12-22T18:08:31.212Z,21.65
2022-12-22T18:09:31.205Z,21.64
2022-12-22T18:10:31.193Z,21.63
2022-12-22T18:11:32.020Z,21.64
2022-12-22T18:12:31.182Z,21.65
2022-12-22T18:13:31.168Z,21.65
2022-12-22T18:14:31.190Z,21.64
2022-12-22T18:15:31.148Z,21.65
2022-12-22T18:16:31.307Z,21.65
2022-12-22T18:17:35.504Z,21.65
2022-12-22T18:18:31.372Z,21.64
2022-12-22T18:19:31.363Z,21.64
2022-12-22T18:20:31.355Z,21.63
2022-12-22T18:21:31.345Z,21.63
2022-12-22T18:22:31.335Z,21.63
2022-12-22T18:23:31.346Z,21.63
2022-12-22T18:24:31.319Z,21.63
2022-12-22T18:25:31.307Z,21.63
2022-12-22T18:26:31.294Z,21.62
2022-12-22T18:27:31.300Z,21.63
2022-12-22T18:28:31.284Z,21.63
2022-12-22T18:29:31.270Z,21.63
2022-12-22T18:30:31.283Z,21.62
2022-12-22T18:31:31.336Z,21.64
2022-12-22T18:32:31.245Z,21.63
2022-12-22T18:33:31.234Z,21.63
2022-12-22T18:34:31.229Z,21.63
2022-12-22T18:35:31.238Z,21.63
2022-12-22T18:36:31.235Z,21.64
2022-12-22T18:37:31.200Z,21.63
2022-12-22T18:38:31.198Z,21.64
2022-12-22T18:39:31.179Z,21.63
2022-12-22T18:40:31.172Z,21.63
2022-12-22T18:41:31.187Z,21.63
2022-12-22T18:42:31.152Z,21.62
2022-12-22T18:43:31.140Z,21.62
2022-12-22T18:44:31.132Z,21.63
2022-12-22T18:45:31.121Z,21.63
2022-12-22T18:46:31.221Z,21.63
2022-12-22T18:47:31.107Z,21.64
2022-12-22T18:48:31.093Z,21.64
2022-12-22T18:49:31.105Z,21.64
2022-12-22T18:50:31.178Z,21.64
2022-12-22T18:51:31.083Z,21.63
2022-12-22T18:52:31.062Z,21.64
2022-12-22T18:53:31.097Z,21.63
2022-12-22T18:54:31.047Z,21.64
2022-12-22T18:55:31.033Z,21.64
2022-12-22T18:56:31.020Z,21.64
2022-12-22T18:57:31.008Z,21.63
2022-12-22T18:58:31.006Z,21.63
2022-12-22T18:59:30.994Z,21.63
2022-12-22T19:00:31.134Z,21.63
2022-12-22T19:01:31.145Z,21.62
2022-12-22T19:02:31.181Z,21.63
2022-12-22T19:03:31.030Z,21.62
2022-12-22T19:04:30.980Z,21.62
2022-12-22T19:05:30.936Z,21.63
2022-12-22T19:06:30.927Z,21.63
2022-12-22T19:07:30.918Z,21.63
2022-12-22T19:08:30.919Z,21.63
2022-12-22T19:09:30.908Z,21.62
2022-12-22T19:10:30.900Z,21.62
2022-12-22T19:11:30.878Z,21.61
2022-12-22T19:12:30.877Z,21.61
2022-12-22T19:13:30.872Z,21.62
2022-12-22T19:14:30.856Z,21.62
2022-12-22T19:15:30.840Z,21.63
2022-12-22T19:16:30.929Z,21.63
2022-12-22T19:17:30.827Z,21.63
2022-12-22T19:18:30.885Z,21.63
2022-12-22T19:19:30.817Z,21.64
2022-12-22T19:20:30.801Z,21.64
2022-12-22T19:21:30.792Z,21.67
2022-12-22T19:22:30.786Z,21.67
2022-12-22T19:23:30.787Z,21.66
2022-12-22T19:24:30.757Z,21.65
2022-12-22T19:25:30.758Z,21.65
2022-12-22T19:26:30.747Z,21.64
2022-12-22T19:27:30.744Z,21.63
2022-12-22T19:28:30.738Z,21.62
2022-12-22T19:29:30.752Z,21.62
2022-12-22T19:30:30.709Z,21.62
2022-12-22T19:31:30.983Z,21.61
2022-12-22T19:32:30.918Z,21.61
2022-12-22T19:33:30.675Z,21.61
2022-12-22T19:34:30.705Z,21.61
2022-12-22T19:35:30.658Z,21.61
2022-12-22T19:36:30.651Z,21.61
2022-12-22T19:37:30.639Z,21.60
2022-12-22T19:38:30.630Z,21.61
2022-12-22T19:39:30.625Z,21.61
2022-12-22T19:40:30.615Z,21.61
2022-12-22T19:41:30.607Z,21.61
2022-12-22T19:42:30.589Z,21.61
2022-12-22T19:43:30.616Z,21.61
2022-12-22T19:44:30.582Z,21.61
2022-12-22T19:45:30.731Z,21.61
2022-12-22T19:46:30.718Z,21.61
2022-12-22T19:47:30.541Z,21.61
2022-12-22T19:48:30.555Z,21.61
2022-12-22T19:49:30.535Z,21.62
2022-12-22T19:50:30.549Z,21.62
2022-12-22T19:51:30.512Z,21.63
2022-12-22T19:52:30.500Z,21.63
2022-12-22T19:53:30.493Z,21.64
2022-12-22T19:54:30.480Z,21.64
2022-12-22T19:55:30.483Z,21.65
2022-12-22T19:56:30.471Z,21.65
2022-12-22T19:57:30.456Z,21.63
2022-12-22T19:58:30.450Z,21.63
2022-12-22T19:59:37.386Z,21.63
2022-12-22T20:00:30.531Z,21.62
2022-12-22T20:01:30.607Z,21.61
2022-12-22T20:02:30.668Z,21.62
2022-12-22T20:03:30.614Z,21.62
2022-12-22T20:04:30.388Z,21.61
2022-12-22T20:05:30.418Z,21.61
2022-12-22T20:06:30.414Z,21.61
2022-12-22T20:07:30.364Z,21.61
2022-12-22T20:08:30.362Z,21.60
2022-12-22T20:09:30.341Z,21.60
2022-12-22T20:10:30.338Z,21.60
2022-12-22T20:11:30.318Z,21.60
2022-12-22T20:12:30.325Z,21.60
2022-12-22T20:13:30.317Z,21.60
2022-12-22T20:14:30.313Z,21.60
2022-12-22T20:15:30.296Z,21.60
2022-12-22T20:16:30.384Z,21.60
2022-12-22T20:17:30.294Z,21.60
2022-12-22T20:18:30.396Z,21.60
2022-12-22T20:19:30.245Z,21.61
2022-12-22T20:20:30.244Z,21.61
2022-12-22T20:21:30.233Z,21.60
2022-12-22T20:22:30.249Z,21.59
2022-12-22T20:23:30.215Z,21.59
2022-12-22T20:24:30.215Z,21.59
2022-12-22T20:25:30.195Z,21.59
2022-12-22T20:26:30.197Z,21.58
2022-12-22T20:27:30.180Z,21.58
2022-12-22T20:28:30.191Z,21.58
2022-12-22T20:29:30.158Z,21.58
2022-12-22T20:30:30.164Z,21.58
2022-12-22T20:31:30.224Z,21.58
2022-12-22T20:32:30.241Z,21.57
2022-12-22T20:33:30.116Z,21.58
2022-12-22T20:34:30.115Z,21.57
2022-12-22T20:35:30.106Z,21.58
2022-12-22T20:36:30.092Z,21.58
2022-12-22T20:37:30.101Z,21.58
2022-12-22T20:38:30.184Z,21.58
2022-12-22T20:39:30.072Z,21.58
2022-12-22T20:40:30.058Z,21.58
2022-12-22T20:41:30.050Z,21.58
2022-12-22T20:42:30.038Z,21.59
2022-12-22T20:43:30.034Z,21.58
2022-12-22T20:44:30.032Z,21.58
2022-12-22T20:45:30.141Z,21.59
2022-12-22T20:46:30.136Z,21.59
2022-12-22T20:47:29.991Z,21.59
2022-12-22T20:48:29.981Z,21.59
2022-12-22T20:49:29.979Z,21.58
2022-12-22T20:50:29.963Z,21.58
2022-12-22T20:51:29.957Z,21.59
2022-12-22T20:52:29.955Z,21.58
2022-12-22T20:53:29.935Z,21.59
2022-12-22T20:54:29.959Z,21.58
2022-12-22T20:55:29.925Z,21.58
2022-12-22T20:56:29.918Z,21.59
2022-12-22T20:57:29.899Z,21.58
2022-12-22T20:58:29.891Z,21.57
2022-12-22T20:59:29.882Z,21.57
2022-12-22T21:00:29.883Z,21.56
2022-12-22T21:01:30.034Z,21.57
2022-12-22T21:02:30.099Z,21.57
2022-12-22T21:03:29.880Z,21.57
2022-12-22T21:04:29.840Z,21.57
2022-12-22T21:05:29.822Z,21.57
2022-12-22T21:06:29.852Z,21.57
2022-12-22T21:07:29.805Z,21.57
2022-12-22T21:08:29.805Z,21.56
2022-12-22T21:09:29.790Z,21.56
2022-12-22T21:10:29.803Z,21.56
2022-12-22T21:11:29.767Z,21.56
2022-12-22T21:12:29.759Z,21.55
2022-12-22T21:13:29.751Z,21.56
2022-12-22T21:14:29.738Z,21.56
2022-12-22T21:15:29.733Z,21.56
2022-12-22T21:16:29.899Z,21.55
2022-12-22T21:17:29.710Z,21.55
2022-12-22T21:18:29.710Z,21.55
2022-12-22T21:19:29.689Z,21.54
2022-12-22T21:20:29.684Z,21.54
2022-12-22T21:21:29.674Z,21.55
2022-12-22T21:22:29.662Z,21.54
2022-12-22T21:23:29.665Z,21.55
2022-12-22T21:24:29.648Z,21.56
2022-12-22T21:25:29.634Z,21.55
2022-12-22T21:26:29.651Z,21.56
2022-12-22T21:27:29.619Z,21.55
2022-12-22T21:28:29.606Z,21.56
2022-12-22T21:29:29.595Z,21.55
2022-12-22T21:30:29.675Z,21.55
2022-12-22T21:31:29.613Z,21.55
2022-12-22T21:32:29.580Z,21.54
2022-12-22T21:33:29.561Z,21.55
2022-12-22T21:34:29.565Z,21.54
2022-12-22T21:35:29.542Z,21.55
2022-12-22T21:36:29.531Z,21.55
2022-12-22T21:37:29.552Z,21.55
2022-12-22T21:38:29.510Z,21.56
2022-12-22T21:39:29.506Z,21.56
2022-12-22T21:40:29.495Z,21.56
2022-12-22T21:41:29.484Z,21.56
2022-12-22T21:42:29.503Z,21.56
2022-12-22T21:43:29.473Z,21.55
2022-12-22T21:44:29.468Z,21.55
2022-12-22T21:45:29.450Z,21.55
2022-12-22T21:46:29.540Z,21.55
2022-12-22T21:47:29.435Z,21.54
2022-12-22T21:48:29.417Z,21.54
2022-12-22T21:49:29.409Z,21.54
2022-12-22T21:50:29.415Z,21.54
2022-12-22T21:51:29.391Z,21.54
2022-12-22T21:52:29.378Z,21.54
2022-12-22T21:53:29.388Z,21.54
2022-12-22T21:54:29.365Z,21.53
2022-12-22T21:55:29.348Z,21.53
2022-12-22T21:56:29.340Z,21.53
2022-12-22T21:57:29.342Z,21.54
2022-12-22T21:58:29.361Z,21.53
2022-12-22T21:59:29.314Z,21.53
2022-12-22T22:00:29.306Z,21.53
2022-12-22T22:01:29.400Z,21.53
2022-12-22T22:02:29.379Z,21.54
2022-12-22T22:03:29.332Z,21.53
2022-12-22T22:04:29.272Z,21.53
2022-12-22T22:05:29.274Z,21.54
2022-12-22T22:06:29.252Z,21.54
2022-12-22T22:07:29.240Z,21.54
